sensor_id;sensor_type;location;lat;lon;timestamp;temperature;humidity
4584;DHT22;2304;47.606;12.186;2022-09-17T00:04:57;14.40;71.70
4584;DHT22;2304;47.606;12.186;2022-09-17T00:09:59;14.40;71.40
4584;DHT22;2304;47.606;12.186;2022-09-17T00:15:02;14.40;71.90
4584;DHT22;2304;47.606;12.186;2022-09-17T00:20:05;14.40;72.80
4584;DHT22;2304;47.606;12.186;2022-09-17T00:25:09;14.40;72.70
4584;DHT22;2304;47.606;12.186;2022-09-17T00:30:13;14.40;73.70
4584;DHT22;2304;47.606;12.186;2022-09-17T00:35:15;14.30;74.20
4584;DHT22;2304;47.606;12.186;2022-09-17T00:40:17;14.10;74.40
4584;DHT22;2304;47.606;12.186;2022-09-17T00:45:20;14.40;74.30
4584;DHT22;2304;47.606;12.186;2022-09-17T00:50:27;14.40;74.20
4584;DHT22;2304;47.606;12.186;2022-09-17T00:55:32;14.40;74.00
4584;DHT22;2304;47.606;12.186;2022-09-17T01:00:36;14.30;74.90
4584;DHT22;2304;47.606;12.186;2022-09-17T01:05:43;14.30;74.40
4584;DHT22;2304;47.606;12.186;2022-09-17T01:11:29;14.30;75.40
4584;DHT22;2304;47.606;12.186;2022-09-17T01:16:38;14.20;76.70
4584;DHT22;2304;47.606;12.186;2022-09-17T01:21:50;14.20;78.20
4584;DHT22;2304;47.606;12.186;2022-09-17T01:27:20;14.20;78.00
4584;DHT22;2304;47.606;12.186;2022-09-17T01:32:29;14.20;78.70
4584;DHT22;2304;47.606;12.186;2022-09-17T01:37:41;14.20;77.40
4584;DHT22;2304;47.606;12.186;2022-09-17T01:42:50;14.20;77.00
4584;DHT22;2304;47.606;12.186;2022-09-17T01:47:58;14.20;77.10
4584;DHT22;2304;47.606;12.186;2022-09-17T01:53:05;14.20;76.90
4584;DHT22;2304;47.606;12.186;2022-09-17T01:58:11;14.10;76.90
4584;DHT22;2304;47.606;12.186;2022-09-17T02:03:18;14.10;76.30
4584;DHT22;2304;47.606;12.186;2022-09-17T02:08:24;14.10;77.10
4584;DHT22;2304;47.606;12.186;2022-09-17T02:13:30;14.10;77.40
4584;DHT22;2304;47.606;12.186;2022-09-17T02:18:37;14.00;76.80
4584;DHT22;2304;47.606;12.186;2022-09-17T02:23:49;13.90;74.20
4584;DHT22;2304;47.606;12.186;2022-09-17T02:28:57;13.80;73.30
4584;DHT22;2304;47.606;12.186;2022-09-17T02:34:03;13.80;73.60
4584;DHT22;2304;47.606;12.186;2022-09-17T02:39:08;13.70;73.50
4584;DHT22;2304;47.606;12.186;2022-09-17T02:44:17;13.70;73.50
4584;DHT22;2304;47.606;12.186;2022-09-17T02:49:52;13.70;74.30
4584;DHT22;2304;47.606;12.186;2022-09-17T02:55:04;13.70;74.70
4584;DHT22;2304;47.606;12.186;2022-09-17T03:00:12;13.70;75.00
4584;DHT22;2304;47.606;12.186;2022-09-17T03:05:18;13.70;75.50
4584;DHT22;2304;47.606;12.186;2022-09-17T03:10:21;13.60;73.60
4584;DHT22;2304;47.606;12.186;2022-09-17T03:15:23;13.60;73.30
4584;DHT22;2304;47.606;12.186;2022-09-17T03:20:26;13.50;73.30
4584;DHT22;2304;47.606;12.186;2022-09-17T03:25:28;13.60;73.50
4584;DHT22;2304;47.606;12.186;2022-09-17T03:30:30;13.50;73.30
4584;DHT22;2304;47.606;12.186;2022-09-17T03:35:33;13.40;71.90
4584;DHT22;2304;47.606;12.186;2022-09-17T03:40:34;13.40;71.40
4584;DHT22;2304;47.606;12.186;2022-09-17T03:45:36;13.30;72.30
4584;DHT22;2304;47.606;12.186;2022-09-17T03:50:39;13.20;71.90
4584;DHT22;2304;47.606;12.186;2022-09-17T03:55:41;13.20;71.30
4584;DHT22;2304;47.606;12.186;2022-09-17T04:00:43;13.10;72.80
4584;DHT22;2304;47.606;12.186;2022-09-17T04:05:46;13.30;73.80
4584;DHT22;2304;47.606;12.186;2022-09-17T04:10:49;13.10;73.10
4584;DHT22;2304;47.606;12.186;2022-09-17T04:15:51;12.80;72.20
4584;DHT22;2304;47.606;12.186;2022-09-17T04:20:54;12.70;72.80
4584;DHT22;2304;47.606;12.186;2022-09-17T04:25:56;12.70;73.30
4584;DHT22;2304;47.606;12.186;2022-09-17T04:30:58;12.70;72.50
4584;DHT22;2304;47.606;12.186;2022-09-17T04:36:01;12.60;71.70
4584;DHT22;2304;47.606;12.186;2022-09-17T04:41:05;12.70;71.40
4584;DHT22;2304;47.606;12.186;2022-09-17T04:46:07;12.60;72.00
4584;DHT22;2304;47.606;12.186;2022-09-17T04:51:10;12.70;72.10
4584;DHT22;2304;47.606;12.186;2022-09-17T04:56:12;12.70;71.60
4584;DHT22;2304;47.606;12.186;2022-09-17T05:01:14;12.70;71.30
4584;DHT22;2304;47.606;12.186;2022-09-17T05:06:19;12.60;71.60
4584;DHT22;2304;47.606;12.186;2022-09-17T05:11:21;12.60;71.40
4584;DHT22;2304;47.606;12.186;2022-09-17T05:16:23;12.50;70.10
4584;DHT22;2304;47.606;12.186;2022-09-17T05:21:26;12.50;70.60
4584;DHT22;2304;47.606;12.186;2022-09-17T05:26:27;12.50;71.30
4584;DHT22;2304;47.606;12.186;2022-09-17T05:31:29;12.40;72.20
4584;DHT22;2304;47.606;12.186;2022-09-17T05:36:32;12.40;71.80
4584;DHT22;2304;47.606;12.186;2022-09-17T05:41:34;12.40;71.30
4584;DHT22;2304;47.606;12.186;2022-09-17T05:46:36;12.30;72.00
4584;DHT22;2304;47.606;12.186;2022-09-17T05:51:39;12.30;72.20
4584;DHT22;2304;47.606;12.186;2022-09-17T05:56:41;12.30;69.90
4584;DHT22;2304;47.606;12.186;2022-09-17T06:01:43;12.20;68.90
4584;DHT22;2304;47.606;12.186;2022-09-17T06:06:46;12.10;69.20
4584;DHT22;2304;47.606;12.186;2022-09-17T06:11:48;12.10;68.70
4584;DHT22;2304;47.606;12.186;2022-09-17T06:16:50;12.20;70.30
4584;DHT22;2304;47.606;12.186;2022-09-17T06:21:53;12.20;70.90
4584;DHT22;2304;47.606;12.186;2022-09-17T06:26:55;12.30;70.20
4584;DHT22;2304;47.606;12.186;2022-09-17T06:31:57;12.30;70.10
4584;DHT22;2304;47.606;12.186;2022-09-17T06:37:01;12.30;72.20
4584;DHT22;2304;47.606;12.186;2022-09-17T06:42:04;12.30;72.70
4584;DHT22;2304;47.606;12.186;2022-09-17T06:47:05;12.30;72.70
4584;DHT22;2304;47.606;12.186;2022-09-17T06:52:09;12.30;73.80
4584;DHT22;2304;47.606;12.186;2022-09-17T06:57:11;12.30;73.00
4584;DHT22;2304;47.606;12.186;2022-09-17T07:02:13;12.30;74.30
4584;DHT22;2304;47.606;12.186;2022-09-17T07:07:16;12.30;73.90
4584;DHT22;2304;47.606;12.186;2022-09-17T07:12:18;12.20;71.70
4584;DHT22;2304;47.606;12.186;2022-09-17T07:17:20;12.10;69.00
4584;DHT22;2304;47.606;12.186;2022-09-17T07:22:24;12.10;71.70
4584;DHT22;2304;47.606;12.186;2022-09-17T07:27:27;12.00;69.60
4584;DHT22;2304;47.606;12.186;2022-09-17T07:32:29;12.20;71.70
4584;DHT22;2304;47.606;12.186;2022-09-17T07:37:32;12.30;72.50
4584;DHT22;2304;47.606;12.186;2022-09-17T07:42:34;12.30;73.20
4584;DHT22;2304;47.606;12.186;2022-09-17T07:47:39;12.40;72.00
4584;DHT22;2304;47.606;12.186;2022-09-17T07:52:46;12.40;70.00
4584;DHT22;2304;47.606;12.186;2022-09-17T07:57:50;12.40;72.80
4584;DHT22;2304;47.606;12.186;2022-09-17T08:02:53;12.50;74.00
4584;DHT22;2304;47.606;12.186;2022-09-17T08:07:56;12.30;73.50
4584;DHT22;2304;47.606;12.186;2022-09-17T08:12:58;12.20;73.60
4584;DHT22;2304;47.606;12.186;2022-09-17T08:18:00;12.10;74.30
4584;DHT22;2304;47.606;12.186;2022-09-17T08:23:03;12.10;74.30
4584;DHT22;2304;47.606;12.186;2022-09-17T08:28:05;12.10;74.00
4584;DHT22;2304;47.606;12.186;2022-09-17T08:33:07;12.10;70.80
4584;DHT22;2304;47.606;12.186;2022-09-17T08:38:10;12.20;70.10
4584;DHT22;2304;47.606;12.186;2022-09-17T08:43:15;12.20;71.90
4584;DHT22;2304;47.606;12.186;2022-09-17T08:48:18;12.10;71.70
4584;DHT22;2304;47.606;12.186;2022-09-17T08:53:33;12.00;70.90
4584;DHT22;2304;47.606;12.186;2022-09-17T08:58:59;12.00;70.50
4584;DHT22;2304;47.606;12.186;2022-09-17T09:04:17;12.00;70.90
4584;DHT22;2304;47.606;12.186;2022-09-17T09:09:29;11.80;68.60
4584;DHT22;2304;47.606;12.186;2022-09-17T09:14:35;12.00;72.90
4584;DHT22;2304;47.606;12.186;2022-09-17T09:19:42;12.20;71.30
4584;DHT22;2304;47.606;12.186;2022-09-17T09:24:56;12.40;69.30
4584;DHT22;2304;47.606;12.186;2022-09-17T09:30:03;12.70;70.40
4584;DHT22;2304;47.606;12.186;2022-09-17T09:35:15;12.90;68.90
4584;DHT22;2304;47.606;12.186;2022-09-17T09:40:29;13.00;70.70
4584;DHT22;2304;47.606;12.186;2022-09-17T09:45:42;12.90;69.80
4584;DHT22;2304;47.606;12.186;2022-09-17T09:50:53;12.90;68.50
4584;DHT22;2304;47.606;12.186;2022-09-17T09:56:09;12.90;68.30
4584;DHT22;2304;47.606;12.186;2022-09-17T10:01:17;12.90;68.50
4584;DHT22;2304;47.606;12.186;2022-09-17T10:06:20;13.00;69.70
4584;DHT22;2304;47.606;12.186;2022-09-17T10:11:24;13.30;72.70
4584;DHT22;2304;47.606;12.186;2022-09-17T10:16:27;13.60;68.20
4584;DHT22;2304;47.606;12.186;2022-09-17T10:21:32;13.90;65.30
4584;DHT22;2304;47.606;12.186;2022-09-17T10:26:36;14.10;69.30
4584;DHT22;2304;47.606;12.186;2022-09-17T10:31:46;14.00;68.80
4584;DHT22;2304;47.606;12.186;2022-09-17T10:36:49;13.90;69.60
4584;DHT22;2304;47.606;12.186;2022-09-17T10:41:55;13.70;70.30
4584;DHT22;2304;47.606;12.186;2022-09-17T10:47:05;13.60;71.60
4584;DHT22;2304;47.606;12.186;2022-09-17T10:52:12;13.70;70.90
4584;DHT22;2304;47.606;12.186;2022-09-17T10:57:22;13.90;67.80
4584;DHT22;2304;47.606;12.186;2022-09-17T11:03:05;13.80;66.10
4584;DHT22;2304;47.606;12.186;2022-09-17T11:08:17;13.90;69.60
4584;DHT22;2304;47.606;12.186;2022-09-17T11:13:29;13.90;69.60
4584;DHT22;2304;47.606;12.186;2022-09-17T11:18:39;13.90;70.90
4584;DHT22;2304;47.606;12.186;2022-09-17T11:24:01;13.90;68.20
4584;DHT22;2304;47.606;12.186;2022-09-17T11:29:34;13.80;66.60
4584;DHT22;2304;47.606;12.186;2022-09-17T11:34:43;13.60;68.10
4584;DHT22;2304;47.606;12.186;2022-09-17T11:39:51;13.60;68.00
4584;DHT22;2304;47.606;12.186;2022-09-17T11:44:58;13.60;69.10
4584;DHT22;2304;47.606;12.186;2022-09-17T11:50:06;13.50;68.80
4584;DHT22;2304;47.606;12.186;2022-09-17T11:55:19;13.60;68.90
4584;DHT22;2304;47.606;12.186;2022-09-17T12:00:23;13.70;67.60
4584;DHT22;2304;47.606;12.186;2022-09-17T12:05:28;13.80;71.00
4584;DHT22;2304;47.606;12.186;2022-09-17T12:10:36;13.70;69.90
4584;DHT22;2304;47.606;12.186;2022-09-17T12:15:43;13.80;70.70
4584;DHT22;2304;47.606;12.186;2022-09-17T12:20:48;13.70;71.20
4584;DHT22;2304;47.606;12.186;2022-09-17T12:25:57;13.80;71.00
4584;DHT22;2304;47.606;12.186;2022-09-17T12:31:09;13.70;70.70
4584;DHT22;2304;47.606;12.186;2022-09-17T12:36:26;13.70;69.60
4584;DHT22;2304;47.606;12.186;2022-09-17T12:41:36;13.70;71.50
4584;DHT22;2304;47.606;12.186;2022-09-17T12:46:53;13.70;69.80
4584;DHT22;2304;47.606;12.186;2022-09-17T12:52:00;13.70;67.30
4584;DHT22;2304;47.606;12.186;2022-09-17T12:57:10;13.50;71.10
4584;DHT22;2304;47.606;12.186;2022-09-17T13:02:19;13.50;71.80
4584;DHT22;2304;47.606;12.186;2022-09-17T13:07:48;13.40;71.60
4584;DHT22;2304;47.606;12.186;2022-09-17T13:12:56;13.40;71.40
4584;DHT22;2304;47.606;12.186;2022-09-17T13:18:11;13.30;70.30
4584;DHT22;2304;47.606;12.186;2022-09-17T13:23:14;13.20;70.70
4584;DHT22;2304;47.606;12.186;2022-09-17T13:28:16;13.20;71.70
4584;DHT22;2304;47.606;12.186;2022-09-17T13:33:48;13.20;71.40
4584;DHT22;2304;47.606;12.186;2022-09-17T13:38:50;13.30;71.30
4584;DHT22;2304;47.606;12.186;2022-09-17T13:43:52;13.20;73.00
4584;DHT22;2304;47.606;12.186;2022-09-17T13:48:59;13.20;72.20
4584;DHT22;2304;47.606;12.186;2022-09-17T13:54:04;13.20;72.80
4584;DHT22;2304;47.606;12.186;2022-09-17T13:59:08;13.30;72.70
4584;DHT22;2304;47.606;12.186;2022-09-17T14:04:31;13.20;70.90
4584;DHT22;2304;47.606;12.186;2022-09-17T14:09:44;13.10;72.20
4584;DHT22;2304;47.606;12.186;2022-09-17T14:14:50;13.00;71.50
4584;DHT22;2304;47.606;12.186;2022-09-17T14:19:54;12.90;71.70
4584;DHT22;2304;47.606;12.186;2022-09-17T14:24:57;12.90;73.30
4584;DHT22;2304;47.606;12.186;2022-09-17T14:30:12;12.90;73.40
4584;DHT22;2304;47.606;12.186;2022-09-17T14:35:32;12.80;72.60
4584;DHT22;2304;47.606;12.186;2022-09-17T14:40:35;12.80;74.20
4584;DHT22;2304;47.606;12.186;2022-09-17T14:45:42;12.80;73.60
4584;DHT22;2304;47.606;12.186;2022-09-17T14:50:45;12.70;73.90
4584;DHT22;2304;47.606;12.186;2022-09-17T14:55:48;12.70;73.40
4584;DHT22;2304;47.606;12.186;2022-09-17T15:00:52;12.70;75.20
4584;DHT22;2304;47.606;12.186;2022-09-17T15:05:55;12.70;73.30
4584;DHT22;2304;47.606;12.186;2022-09-17T15:10:58;12.50;73.40
4584;DHT22;2304;47.606;12.186;2022-09-17T15:16:03;12.50;75.50
4584;DHT22;2304;47.606;12.186;2022-09-17T15:21:25;12.50;76.60
4584;DHT22;2304;47.606;12.186;2022-09-17T15:26:32;12.50;76.00
4584;DHT22;2304;47.606;12.186;2022-09-17T15:31:36;12.50;75.70
4584;DHT22;2304;47.606;12.186;2022-09-17T15:36:40;12.50;76.30
4584;DHT22;2304;47.606;12.186;2022-09-17T15:42:01;12.40;72.90
4584;DHT22;2304;47.606;12.186;2022-09-17T15:47:36;12.30;74.70
4584;DHT22;2304;47.606;12.186;2022-09-17T15:52:39;12.30;76.50
4584;DHT22;2304;47.606;12.186;2022-09-17T15:57:43;12.30;77.90
4584;DHT22;2304;47.606;12.186;2022-09-17T16:02:44;12.30;76.00
4584;DHT22;2304;47.606;12.186;2022-09-17T16:07:48;12.30;75.30
4584;DHT22;2304;47.606;12.186;2022-09-17T16:12:50;12.20;75.40
4584;DHT22;2304;47.606;12.186;2022-09-17T16:17:52;12.10;73.60
4584;DHT22;2304;47.606;12.186;2022-09-17T16:22:55;11.80;74.10
4584;DHT22;2304;47.606;12.186;2022-09-17T16:28:00;11.80;75.70
4584;DHT22;2304;47.606;12.186;2022-09-17T16:33:03;11.90;78.10
4584;DHT22;2304;47.606;12.186;2022-09-17T16:38:08;11.80;79.20
4584;DHT22;2304;47.606;12.186;2022-09-17T16:43:11;11.80;78.80
4584;DHT22;2304;47.606;12.186;2022-09-17T16:48:13;11.70;77.20
4584;DHT22;2304;47.606;12.186;2022-09-17T16:53:16;11.80;78.20
4584;DHT22;2304;47.606;12.186;2022-09-17T16:58:18;11.80;77.20
4584;DHT22;2304;47.606;12.186;2022-09-17T17:03:20;11.80;78.10
4584;DHT22;2304;47.606;12.186;2022-09-17T17:08:23;11.80;77.80
4584;DHT22;2304;47.606;12.186;2022-09-17T17:13:25;11.80;78.40
4584;DHT22;2304;47.606;12.186;2022-09-17T17:18:27;11.70;79.00
4584;DHT22;2304;47.606;12.186;2022-09-17T17:23:30;11.50;79.70
4584;DHT22;2304;47.606;12.186;2022-09-17T17:28:33;11.50;77.20
4584;DHT22;2304;47.606;12.186;2022-09-17T17:33:36;11.40;78.10
4584;DHT22;2304;47.606;12.186;2022-09-17T17:38:39;11.30;77.20
4584;DHT22;2304;47.606;12.186;2022-09-17T17:43:41;11.20;76.20
4584;DHT22;2304;47.606;12.186;2022-09-17T17:48:43;11.20;77.50
4584;DHT22;2304;47.606;12.186;2022-09-17T17:53:46;11.20;75.60
4584;DHT22;2304;47.606;12.186;2022-09-17T17:58:52;11.20;75.90
4584;DHT22;2304;47.606;12.186;2022-09-17T18:03:56;11.10;74.10
4584;DHT22;2304;47.606;12.186;2022-09-17T18:09:00;10.90;73.90
4584;DHT22;2304;47.606;12.186;2022-09-17T18:14:02;10.90;75.60
4584;DHT22;2304;47.606;12.186;2022-09-17T18:19:04;10.90;76.40
4584;DHT22;2304;47.606;12.186;2022-09-17T18:24:07;10.90;75.60
4584;DHT22;2304;47.606;12.186;2022-09-17T18:29:09;10.90;75.00
4584;DHT22;2304;47.606;12.186;2022-09-17T18:34:13;10.80;75.30
4584;DHT22;2304;47.606;12.186;2022-09-17T18:39:17;11.00;77.20
4584;DHT22;2304;47.606;12.186;2022-09-17T18:44:20;10.70;78.00
4584;DHT22;2304;47.606;12.186;2022-09-17T18:49:22;10.80;77.50
4584;DHT22;2304;47.606;12.186;2022-09-17T18:54:25;10.80;78.60
4584;DHT22;2304;47.606;12.186;2022-09-17T18:59:27;10.50;78.70
4584;DHT22;2304;47.606;12.186;2022-09-17T19:04:29;10.70;79.60
4584;DHT22;2304;47.606;12.186;2022-09-17T19:09:32;10.40;78.80
4584;DHT22;2304;47.606;12.186;2022-09-17T19:14:34;10.40;80.00
4584;DHT22;2304;47.606;12.186;2022-09-17T19:19:36;10.30;81.00
4584;DHT22;2304;47.606;12.186;2022-09-17T19:24:39;10.30;80.80
4584;DHT22;2304;47.606;12.186;2022-09-17T19:29:41;10.20;81.00
4584;DHT22;2304;47.606;12.186;2022-09-17T19:34:42;10.10;81.20
4584;DHT22;2304;47.606;12.186;2022-09-17T19:39:46;10.40;80.00
4584;DHT22;2304;47.606;12.186;2022-09-17T19:44:47;10.10;80.00
4584;DHT22;2304;47.606;12.186;2022-09-17T19:49:49;10.10;80.50
4584;DHT22;2304;47.606;12.186;2022-09-17T19:54:53;10.20;81.30
4584;DHT22;2304;47.606;12.186;2022-09-17T19:59:55;10.20;81.10
4584;DHT22;2304;47.606;12.186;2022-09-17T20:04:59;10.30;80.70
4584;DHT22;2304;47.606;12.186;2022-09-17T20:10:03;10.10;81.60
4584;DHT22;2304;47.606;12.186;2022-09-17T20:15:05;10.00;81.80
4584;DHT22;2304;47.606;12.186;2022-09-17T20:20:08;10.00;81.80
4584;DHT22;2304;47.606;12.186;2022-09-17T20:25:12;10.10;83.60
4584;DHT22;2304;47.606;12.186;2022-09-17T20:30:14;10.10;83.00
4584;DHT22;2304;47.606;12.186;2022-09-17T20:35:15;9.90;81.70
4584;DHT22;2304;47.606;12.186;2022-09-17T20:40:19;9.90;83.10
4584;DHT22;2304;47.606;12.186;2022-09-17T20:45:20;9.80;83.80
4584;DHT22;2304;47.606;12.186;2022-09-17T20:50:22;9.80;84.00
4584;DHT22;2304;47.606;12.186;2022-09-17T20:55:25;9.80;84.90
4584;DHT22;2304;47.606;12.186;2022-09-17T21:00:28;9.90;86.00
4584;DHT22;2304;47.606;12.186;2022-09-17T21:05:30;9.70;85.80
4584;DHT22;2304;47.606;12.186;2022-09-17T21:10:33;9.60;87.30
4584;DHT22;2304;47.606;12.186;2022-09-17T21:15:35;9.50;87.10
4584;DHT22;2304;47.606;12.186;2022-09-17T21:20:37;9.60;86.50
4584;DHT22;2304;47.606;12.186;2022-09-17T21:25:40;9.70;86.70
4584;DHT22;2304;47.606;12.186;2022-09-17T21:30:42;9.60;86.90
4584;DHT22;2304;47.606;12.186;2022-09-17T21:35:47;9.50;87.10
4584;DHT22;2304;47.606;12.186;2022-09-17T21:40:57;9.50;86.40
4584;DHT22;2304;47.606;12.186;2022-09-17T21:46:03;9.60;86.50
4584;DHT22;2304;47.606;12.186;2022-09-17T21:51:07;9.60;86.50
4584;DHT22;2304;47.606;12.186;2022-09-17T21:56:12;9.60;85.60
4584;DHT22;2304;47.606;12.186;2022-09-17T22:01:16;9.70;85.80
4584;DHT22;2304;47.606;12.186;2022-09-17T22:06:20;9.60;86.60
4584;DHT22;2304;47.606;12.186;2022-09-17T22:11:26;9.70;87.90
4584;DHT22;2304;47.606;12.186;2022-09-17T22:16:29;10.00;87.30
4584;DHT22;2304;47.606;12.186;2022-09-17T22:21:32;9.80;87.10
4584;DHT22;2304;47.606;12.186;2022-09-17T22:26:38;9.80;86.10
4584;DHT22;2304;47.606;12.186;2022-09-17T22:31:41;9.70;86.50
4584;DHT22;2304;47.606;12.186;2022-09-17T22:36:43;9.60;86.40
4584;DHT22;2304;47.606;12.186;2022-09-17T22:41:46;9.60;86.70
4584;DHT22;2304;47.606;12.186;2022-09-17T22:46:50;9.80;87.20
4584;DHT22;2304;47.606;12.186;2022-09-17T22:51:52;9.70;87.60
4584;DHT22;2304;47.606;12.186;2022-09-17T22:56:56;9.70;87.00
4584;DHT22;2304;47.606;12.186;2022-09-17T23:01:57;10.10;87.40
4584;DHT22;2304;47.606;12.186;2022-09-17T23:06:59;9.90;85.80
4584;DHT22;2304;47.606;12.186;2022-09-17T23:12:03;10.00;85.80
4584;DHT22;2304;47.606;12.186;2022-09-17T23:17:04;10.10;84.80
4584;DHT22;2304;47.606;12.186;2022-09-17T23:22:06;10.10;84.10
4584;DHT22;2304;47.606;12.186;2022-09-17T23:27:09;10.10;84.30
4584;DHT22;2304;47.606;12.186;2022-09-17T23:32:11;10.10;83.20
4584;DHT22;2304;47.606;12.186;2022-09-17T23:37:13;10.10;81.80
4584;DHT22;2304;47.606;12.186;2022-09-17T23:42:16;10.10;81.60
4584;DHT22;2304;47.606;12.186;2022-09-17T23:47:18;10.00;79.80
4584;DHT22;2304;47.606;12.186;2022-09-17T23:52:20;10.10;77.50
4584;DHT22;2304;47.606;12.186;2022-09-17T23:57:23;10.10;75.50
